Colorado Springs, CO

8:57 AM MDT on September 21, 2014 (GMT -0600)
Charleston Place, Briargate, CO | Change Station
CLOSE
Current Station
Personal Weather Station
Location: Colorado Springs, CO
Elevation: 6870 ft
Nearby Weather Stations

Elev 6870 ft 38.95 °N, 104.76 °W | Updated 33 seconds ago

Overcast
Overcast
58.6 °F
Feels Like 58.6 °F
N
6.2
Wind Variable Wind from SE
Gusts 6.2 mph

Today
High -- | Low -- °F
--% Chance of Precip.
Yesterday
High -- | Low -- °F
Precip. -- in
6:45 AM 6:57 PM
Waning Crescent, 6% visible
Pressure 30.22 in
Visibility 10.0 miles
Clouds Mostly Cloudy 4800 ft
Dew Point 52 °F
Humidity 78%
Rainfall 0.00 in
Snow Depth 0 in , 0 in , 0 in
UV 0 out of 12
Pollen 4.30 out of 12
Ozone Good
PM2.5 Good
Flu Activity Not available.
METAR KAFF 211358Z AUTO 16004KT 10SM BKN048 14/11 A3044 RMK AO2 SLP231 T01410109

More Conditions Fewer Conditions

Pressure 30.22 in
Visibility 10.0 miles
Clouds Mostly Cloudy 4800 ft
Dew Point 52 °F
Humidity 78%
Rainfall 0.00 in
Snow Depth 0 in , 0 in , 0 in
UV 0 out of 12
Pollen 4.30 out of 12
Ozone Good
PM2.5 Good
Flu Activity Not available.
METAR KAFF 211358Z AUTO 16004KT 10SM BKN048 14/11 A3044 RMK AO2 SLP231 T01410109

More Conditions Fewer Conditions

10-Day Weather Forecast

Almanac

Astronomy

Sep. 21, 2014 Rise Set
Actual Time 6:45 AM MDT 6:57 PM MDT
Civil Twilight 6:19 AM MDT 7:24 PM MDT
Nautical Twilight 5:48 AM MDT 7:55 PM MDT
Astronomical Twilight 5:16 AM MDT 8:26 PM MDT
Moon 4:22 AM MDT 5:34 PM MDT
Length of Visible Light 13h 04m
Length of Day
12h 11m
Tomorrow will be 2m 30s shorter.
Waning Crescent, 6% of the Moon is Illuminated
Today
Waning Crescent
Sep 24
New
Oct 1
First Quarter
Oct 8
Full
Oct 15
Last Quarter

Today's Extremes

State Highs State Lows

Community

WunderPhotos

Upload Photos

1,755,167 photos uploaded!

Nearby

Air Quality

  Air Quality AQ Index Pollutant
Yesterday Good
OZONE
Yesterday Good
PM2.5
Current Good
PM2.5
Current Good
OZONE
Sunday Good
PM2.5
Sunday Good
OZONE
Monday Good
PM2.5
Monday Good
OZONE

Snow Depth

Station Depth Elevation
Beartown 0 in 11600 ft
Red Mountain Pass 0 in 11150 ft
Apishapa 0 in 10000 ft
Medano Pass 0 in 9620 ft
Bear RIver 0 in 9080 ft

Earthquake Activity

City Distance Mag. Time & Date
No recent earthquake activity has been reported nearby.
Minimum magnitude displayed is 2.5.

Coastal Water Temperatures

Place Temperature
No Stations Reporting

Nearby Weather Stations